createdAt,value
2018-09-20T00:01:33.455Z,18.90
2018-09-20T00:06:36.480Z,18.90
2018-09-20T00:11:39.670Z,18.80
2018-09-20T00:16:42.639Z,18.70
2018-09-20T00:21:45.617Z,18.50
2018-09-20T00:26:48.727Z,18.40
2018-09-20T00:31:51.860Z,18.30
2018-09-20T00:36:54.835Z,18.20
2018-09-20T00:41:57.911Z,18.10
2018-09-20T00:47:02.580Z,17.70
2018-09-20T00:52:05.775Z,17.60
2018-09-20T00:57:09.844Z,17.50
2018-09-20T01:02:13.214Z,17.50
2018-09-20T01:07:16.384Z,17.60
2018-09-20T01:12:19.348Z,17.50
2018-09-20T01:17:22.309Z,17.40
2018-09-20T01:22:25.283Z,17.30
2018-09-20T01:27:28.258Z,17.10
2018-09-20T01:32:31.502Z,17.10
2018-09-20T01:37:34.460Z,17.00
2018-09-20T01:42:37.419Z,16.80
2018-09-20T01:47:40.386Z,16.90
2018-09-20T01:52:43.335Z,17.00
2018-09-20T01:57:46.328Z,17.00
2018-09-20T02:02:49.339Z,17.10
2018-09-20T02:07:52.313Z,17.00
2018-09-20T02:12:55.444Z,17.00
2018-09-20T02:17:58.655Z,17.30
2018-09-20T02:23:04.285Z,17.50
2018-09-20T02:28:07.289Z,17.70
2018-09-20T02:33:10.439Z,17.80
2018-09-20T02:38:13.483Z,17.80
2018-09-20T02:43:16.445Z,17.70
2018-09-20T02:48:19.423Z,17.60
2018-09-20T02:53:22.355Z,17.60
2018-09-20T02:58:25.333Z,17.50
2018-09-20T03:03:28.323Z,17.50
2018-09-20T03:08:31.324Z,17.70
2018-09-20T03:13:34.353Z,17.60
2018-09-20T03:18:37.342Z,17.50
2018-09-20T03:23:40.312Z,17.50
2018-09-20T03:28:43.330Z,17.50
2018-09-20T03:33:47.022Z,17.60
2018-09-20T03:38:50.056Z,17.60
2018-09-20T03:43:53.220Z,17.50
2018-09-20T03:48:56.205Z,17.50
2018-09-20T03:53:59.248Z,17.60
2018-09-20T03:59:04.276Z,17.50
2018-09-20T04:04:07.421Z,17.60
2018-09-20T04:09:11.616Z,17.50
2018-09-20T04:14:14.666Z,17.40
2018-09-20T04:19:17.708Z,17.40
2018-09-20T04:24:20.757Z,17.50
2018-09-20T04:29:23.882Z,17.60
2018-09-20T04:34:27.279Z,17.70
2018-09-20T04:39:30.291Z,17.70
2018-09-20T04:44:33.287Z,17.80
2018-09-20T04:49:36.364Z,17.70
2018-09-20T04:54:39.583Z,17.60
2018-09-20T04:59:42.594Z,17.60
2018-09-20T05:04:45.842Z,17.50
2018-09-20T05:09:49.020Z,17.40
2018-09-20T05:14:52.027Z,17.40
2018-09-20T05:19:55.108Z,17.40
2018-09-20T05:24:58.131Z,17.40
2018-09-20T05:30:03.117Z,17.40
2018-09-20T05:35:06.185Z,17.40
2018-09-20T05:40:09.558Z,17.50
2018-09-20T05:45:12.583Z,17.50
2018-09-20T05:50:15.573Z,17.40
2018-09-20T05:55:18.570Z,17.60
2018-09-20T06:00:21.581Z,17.70
2018-09-20T06:05:24.556Z,17.40
2018-09-20T06:10:27.583Z,17.20
2018-09-20T06:15:30.883Z,17.00
2018-09-20T06:20:33.854Z,17.10
2018-09-20T06:25:36.853Z,17.30
2018-09-20T06:30:39.835Z,17.70
2018-09-20T06:35:43.153Z,18.60
2018-09-20T06:40:46.190Z,19.60
2018-09-20T06:45:49.192Z,20.40
2018-09-20T06:50:52.214Z,20.40
2018-09-20T06:55:55.187Z,21.70
2018-09-20T07:00:58.196Z,23.60
2018-09-20T07:06:03.697Z,24.50
2018-09-20T07:11:06.727Z,25.00
2018-09-20T07:16:09.749Z,25.40
2018-09-20T07:21:12.791Z,24.60
2018-09-20T07:26:17.268Z,24.90
2018-09-20T07:31:20.506Z,25.00
2018-09-20T07:36:23.537Z,25.60
2018-09-20T07:41:26.783Z,25.70
2018-09-20T07:46:29.901Z,26.00
2018-09-20T07:51:32.971Z,26.20
2018-09-20T07:56:35.987Z,26.40
2018-09-20T08:01:39.040Z,26.10
2018-09-20T08:06:42.067Z,26.40
2018-09-20T08:11:45.072Z,26.50
2018-09-20T08:16:48.080Z,26.30
2018-09-20T08:21:51.093Z,26.60
2018-09-20T08:26:54.092Z,26.70
2018-09-20T08:31:57.178Z,26.70
2018-09-20T08:37:00.339Z,26.60
2018-09-20T08:42:03.882Z,26.40
2018-09-20T08:47:06.951Z,26.40
2018-09-20T08:52:10.090Z,26.40
2018-09-20T08:57:13.135Z,26.50
2018-09-20T09:02:16.084Z,26.20
2018-09-20T09:07:19.098Z,26.00
2018-09-20T09:12:22.334Z,25.90
2018-09-20T09:17:25.343Z,26.30
2018-09-20T09:22:28.365Z,26.20
2018-09-20T09:27:31.341Z,26.00
2018-09-20T09:32:34.328Z,26.00
2018-09-20T09:37:37.304Z,26.00
2018-09-20T09:42:40.195Z,25.80
2018-09-20T09:47:43.476Z,25.90
2018-09-20T09:52:46.950Z,26.10
2018-09-20T09:57:52.438Z,26.20
2018-09-20T10:02:57.055Z,26.30
2018-09-20T10:08:00.021Z,26.30
2018-09-20T10:13:05.457Z,26.20
2018-09-20T10:18:08.502Z,26.40
2018-09-20T10:23:11.511Z,26.30
2018-09-20T10:28:14.762Z,26.50
2018-09-20T10:33:17.660Z,26.70
2018-09-20T10:38:20.874Z,26.80
2018-09-20T10:43:24.505Z,26.60
2018-09-20T10:48:27.487Z,26.80
2018-09-20T10:53:30.520Z,26.80
2018-09-20T10:58:33.493Z,27.00
2018-09-20T11:03:36.583Z,27.10
2018-09-20T11:08:39.644Z,27.20
2018-09-20T11:13:42.635Z,27.20
2018-09-20T11:18:45.652Z,27.30
2018-09-20T11:23:48.715Z,27.40
2018-09-20T11:28:51.750Z,27.30
2018-09-20T11:33:54.741Z,27.20
2018-09-20T11:38:57.809Z,27.50
2018-09-20T11:44:02.597Z,27.60
2018-09-20T11:49:05.569Z,27.70
2018-09-20T11:54:08.644Z,27.70
2018-09-20T11:59:11.625Z,27.60
2018-09-20T12:04:14.656Z,27.70
2018-09-20T12:09:17.745Z,27.60
2018-09-20T12:14:20.777Z,27.60
2018-09-20T12:19:23.803Z,27.80
2018-09-20T12:24:26.822Z,27.90
2018-09-20T12:29:29.820Z,27.70
2018-09-20T12:34:32.785Z,27.70
2018-09-20T12:39:35.818Z,28.00
2018-09-20T12:44:38.777Z,28.00
2018-09-20T12:49:41.752Z,28.30
2018-09-20T12:54:44.806Z,28.20
2018-09-20T12:59:47.823Z,28.30
2018-09-20T13:04:50.970Z,28.30
2018-09-20T13:09:54.003Z,28.20
2018-09-20T13:14:57.018Z,28.40
2018-09-20T13:20:00.045Z,28.50
2018-09-20T13:25:05.446Z,28.20
2018-09-20T13:30:09.367Z,28.30
2018-09-20T13:35:12.357Z,28.40
2018-09-20T13:40:15.462Z,28.40
2018-09-20T13:45:18.493Z,28.40
2018-09-20T13:50:21.530Z,28.60
2018-09-20T13:55:24.657Z,28.70
2018-09-20T14:00:27.715Z,28.50
2018-09-20T14:05:30.790Z,28.30
2018-09-20T14:10:33.848Z,28.30
2018-09-20T14:15:36.966Z,28.30
2018-09-20T14:20:39.904Z,28.60
2018-09-20T14:25:43.046Z,28.60
2018-09-20T14:30:46.158Z,28.50
2018-09-20T14:35:49.202Z,28.50
2018-09-20T14:40:52.348Z,28.50
2018-09-20T14:45:55.540Z,28.50
2018-09-20T14:50:58.669Z,28.40
2018-09-20T14:56:03.679Z,28.30
2018-09-20T15:01:06.991Z,28.20
2018-09-20T15:06:10.161Z,28.20
2018-09-20T15:11:13.206Z,28.20
2018-09-20T15:16:16.275Z,28.20
2018-09-20T15:21:19.447Z,28.20
2018-09-20T15:26:22.982Z,28.30
2018-09-20T15:31:26.651Z,28.10
2018-09-20T15:36:29.822Z,28.10
2018-09-20T15:41:32.820Z,28.10
2018-09-20T15:46:36.033Z,27.90
2018-09-20T15:51:39.172Z,27.80
2018-09-20T15:56:42.183Z,27.80
2018-09-20T16:01:45.319Z,27.80
2018-09-20T16:06:48.345Z,27.70
2018-09-20T16:11:51.410Z,27.60
2018-09-20T16:16:54.440Z,27.40
2018-09-20T16:21:57.415Z,27.30
2018-09-20T16:27:00.465Z,27.20
2018-09-20T16:32:21.411Z,27.20
2018-09-20T16:42:03.006Z,27.10
2018-09-20T16:47:06.353Z,26.90
2018-09-20T16:52:09.386Z,26.70
2018-09-20T16:57:12.453Z,26.50
2018-09-20T17:02:15.463Z,26.40
2018-09-20T17:07:18.601Z,26.20
2018-09-20T17:12:21.531Z,26.10
2018-09-20T17:17:24.576Z,25.90
2018-09-20T17:22:27.596Z,25.80
2018-09-20T17:27:30.636Z,25.60
2018-09-20T17:32:33.638Z,25.50
2018-09-20T17:37:38.717Z,25.30
2018-09-20T17:42:42.893Z,25.10
2018-09-20T17:47:45.939Z,25.10
2018-09-20T17:52:50.556Z,25.00
2018-09-20T17:58:23.358Z,24.80
2018-09-20T18:03:26.510Z,24.70
2018-09-20T18:08:29.755Z,24.70
2018-09-20T18:13:32.804Z,24.40
2018-09-20T18:18:36.590Z,24.30
2018-09-20T18:23:39.670Z,24.10
2018-09-20T18:28:42.690Z,24.10
2018-09-20T18:33:45.750Z,24.00
2018-09-20T18:38:48.930Z,23.80
2018-09-20T18:43:51.987Z,23.60
2018-09-20T18:48:55.056Z,23.40
2018-09-20T18:53:58.079Z,23.30
2018-09-20T18:59:04.144Z,23.10
2018-09-20T19:04:07.305Z,22.80
2018-09-20T19:09:10.455Z,22.70
2018-09-20T19:14:13.517Z,22.50
2018-09-20T19:19:16.618Z,22.30
2018-09-20T19:24:19.661Z,22.20
2018-09-20T19:29:23.029Z,22.00
2018-09-20T19:34:26.112Z,21.70
2018-09-20T19:39:29.213Z,21.30
2018-09-20T19:44:32.333Z,21.00
2018-09-20T19:49:35.421Z,20.80
2018-09-20T19:54:38.671Z,20.70
2018-09-20T19:59:43.041Z,20.50
2018-09-20T20:04:46.133Z,20.40
2018-09-20T20:09:49.210Z,20.30
2018-09-20T20:14:52.367Z,20.20
2018-09-20T20:25:04.477Z,20.50
2018-09-20T20:30:07.575Z,20.60
2018-09-20T20:35:10.644Z,20.40
2018-09-20T20:40:13.670Z,20.30
2018-09-20T20:45:16.793Z,20.10
2018-09-20T20:50:20.008Z,20.00
2018-09-20T20:55:23.084Z,19.90
2018-09-20T21:00:26.116Z,19.50
2018-09-20T21:05:29.156Z,19.30
2018-09-20T21:10:32.255Z,19.50
2018-09-20T21:15:35.317Z,19.20
2018-09-20T21:20:38.444Z,19.10
2018-09-20T21:25:41.412Z,19.00
2018-09-20T21:30:44.415Z,18.90
2018-09-20T21:35:47.428Z,18.70
2018-09-20T21:40:50.505Z,18.70
2018-09-20T21:45:54.391Z,18.60
2018-09-20T21:50:57.425Z,18.50
2018-09-20T21:56:00.420Z,18.60
2018-09-20T22:01:05.111Z,18.50
2018-09-20T22:06:08.131Z,18.40
2018-09-20T22:11:11.404Z,18.30
2018-09-20T22:16:14.472Z,18.30
2018-09-20T22:21:17.490Z,18.20
2018-09-20T22:26:20.607Z,18.20
2018-09-20T22:31:23.582Z,18.00
2018-09-20T22:36:26.546Z,18.00
2018-09-20T22:41:29.683Z,18.00
2018-09-20T22:46:32.695Z,18.00
2018-09-20T22:51:35.684Z,17.80
2018-09-20T22:56:38.686Z,17.70
2018-09-20T23:01:41.658Z,17.70
2018-09-20T23:06:44.690Z,17.60
2018-09-20T23:11:47.644Z,17.50
2018-09-20T23:16:50.708Z,17.50
2018-09-20T23:21:54.104Z,17.50
2018-09-20T23:26:57.173Z,17.50
2018-09-20T23:32:00.521Z,17.50
2018-09-20T23:37:05.343Z,17.40
2018-09-20T23:42:08.386Z,17.40
2018-09-20T23:47:11.336Z,17.40
2018-09-20T23:52:14.376Z,17.30
2018-09-20T23:57:17.332Z,17.00
